Time;durP1;ratioP1;P1;durP2;ratioP2;P2;SDS_P1;SDS_P2;PMS_P1;PMS_P2;Temp;Humidity;BMP_temperature;BMP_pressure;BME280_temperature;BME280_humidity;BME280_pressure;Samples;Min_cycle;Max_cycle;Signal;HPM_P1;HPM_P2
2023/09/24 00:00:33;;;;;;;1.00;0.90;;;;;;;;;;10327787;28;20224;-81
2023/09/24 00:05:42;;;;;;;1.27;0.80;;;;;;;;;;10331154;28;20224;-81
2023/09/24 00:10:47;;;;;;;1.00;0.80;;;;;;;;;;10273734;28;20753;-80
2023/09/24 00:15:52;;;;;;;3.05;0.77;;;;;;;;;;10268800;28;20324;-80
2023/09/24 00:20:53;;;;;;;0.85;0.85;;;;;;;;;;10275227;28;20228;-80
2023/09/24 00:25:55;;;;;;;2.58;1.15;;;;;;;;;;10290124;28;20217;-78
2023/09/24 00:30:58;;;;;;;1.15;1.15;;;;;;;;;;10252770;28;20221;-79
2023/09/24 00:35:59;;;;;;;2.47;1.27;;;;;;;;;;10280396;28;20292;-79
2023/09/24 00:41:01;;;;;;;1.52;1.27;;;;;;;;;;10265384;28;20248;-80
2023/09/24 00:46:04;;;;;;;1.10;1.10;;;;;;;;;;10270165;28;20261;-79
2023/09/24 00:51:15;;;;;;;1.10;1.10;;;;;;;;;;10271830;28;20232;-79
2023/09/24 00:56:16;;;;;;;1.33;1.33;;;;;;;;;;10284531;28;20861;-79
2023/09/24 01:01:19;;;;;;;1.13;1.13;;;;;;;;;;10276753;28;20227;-79
2023/09/24 01:06:20;;;;;;;3.15;1.67;;;;;;;;;;10288942;28;20267;-78
2023/09/24 01:11:24;;;;;;;2.55;2.00;;;;;;;;;;10303744;28;20306;-79
2023/09/24 01:16:25;;;;;;;1.83;1.73;;;;;;;;;;10335531;28;20219;-79
2023/09/24 01:21:27;;;;;;;1.60;1.60;;;;;;;;;;10317291;28;20216;-79
2023/09/24 01:26:28;;;;;;;3.00;1.45;;;;;;;;;;10304875;28;20212;-79
2023/09/24 01:31:30;;;;;;;2.40;2.30;;;;;;;;;;10319343;28;20220;-78
2023/09/24 01:36:32;;;;;;;1.90;1.90;;;;;;;;;;10317235;28;20204;-78
2023/09/24 01:41:34;;;;;;;2.88;1.95;;;;;;;;;;10319903;28;20221;-78
2023/09/24 01:46:35;;;;;;;2.70;2.28;;;;;;;;;;10291812;28;20228;-80
2023/09/24 01:51:36;;;;;;;2.15;2.05;;;;;;;;;;10310440;28;20363;-79
2023/09/24 01:56:37;;;;;;;2.72;2.30;;;;;;;;;;10286996;28;20283;-80
2023/09/24 02:01:38;;;;;;;2.28;2.17;;;;;;;;;;10310400;28;20722;-79
2023/09/24 02:06:41;;;;;;;2.45;2.30;;;;;;;;;;10305539;28;20615;-80
2023/09/24 02:11:56;;;;;;;2.60;2.50;;;;;;;;;;10308941;28;20221;-79
2023/09/24 02:17:05;;;;;;;2.33;2.22;;;;;;;;;;10293492;28;20296;-79
2023/09/24 02:22:06;;;;;;;2.13;2.13;;;;;;;;;;10284451;28;20220;-79
2023/09/24 02:27:09;;;;;;;2.20;2.17;;;;;;;;;;10322005;28;20266;-79
2023/09/24 02:32:10;;;;;;;2.70;2.50;;;;;;;;;;10315033;28;20568;-79
2023/09/24 02:37:11;;;;;;;2.22;2.13;;;;;;;;;;10318508;28;20296;-80
2023/09/24 02:42:12;;;;;;;3.05;2.00;;;;;;;;;;10325220;28;20255;-79
2023/09/24 02:47:14;;;;;;;5.43;2.30;;;;;;;;;;10319628;28;20224;-80
2023/09/24 02:52:15;;;;;;;2.30;2.30;;;;;;;;;;10316450;28;20729;-78
2023/09/24 02:57:17;;;;;;;3.08;2.97;;;;;;;;;;10322839;28;20263;-81
2023/09/24 03:02:19;;;;;;;4.18;3.88;;;;;;;;;;10307387;28;20571;-79
2023/09/24 03:07:20;;;;;;;3.67;3.47;;;;;;;;;;10338524;28;20232;-78
2023/09/24 03:12:21;;;;;;;3.60;3.20;;;;;;;;;;10338570;28;20227;-81
2023/09/24 03:17:22;;;;;;;4.00;3.80;;;;;;;;;;10339621;28;20212;-80
2023/09/24 03:22:24;;;;;;;3.00;2.90;;;;;;;;;;10317815;28;20222;-79
2023/09/24 03:27:25;;;;;;;3.55;3.38;;;;;;;;;;10320642;28;20216;-79
2023/09/24 03:32:26;;;;;;;4.07;3.65;;;;;;;;;;10315006;28;20212;-80
2023/09/24 03:37:27;;;;;;;3.35;3.15;;;;;;;;;;10332822;28;20212;-79
2023/09/24 03:42:28;;;;;;;3.90;3.60;;;;;;;;;;10302263;28;20208;-79
2023/09/24 03:47:29;;;;;;;3.63;3.28;;;;;;;;;;10310179;28;20243;-79
2023/09/24 03:52:30;;;;;;;3.65;3.35;;;;;;;;;;10291318;28;20227;-79
2023/09/24 03:57:32;;;;;;;3.70;3.00;;;;;;;;;;10299345;28;20215;-78
2023/09/24 04:02:33;;;;;;;3.42;3.22;;;;;;;;;;10293199;28;20858;-79
2023/09/24 04:07:34;;;;;;;3.15;2.85;;;;;;;;;;10316634;28;20250;-79
2023/09/24 04:12:35;;;;;;;3.90;3.35;;;;;;;;;;10331925;28;20270;-80
2023/09/24 04:17:42;;;;;;;4.38;3.60;;;;;;;;;;10343155;28;20212;-79
2023/09/24 04:22:44;;;;;;;3.28;3.08;;;;;;;;;;10333117;28;20217;-80
2023/09/24 04:27:45;;;;;;;3.40;3.20;;;;;;;;;;10327782;28;20793;-80
2023/09/24 04:32:58;;;;;;;5.00;3.50;;;;;;;;;;10339196;28;20229;-80
2023/09/24 04:37:59;;;;;;;3.83;3.53;;;;;;;;;;10320051;28;20207;-79
2023/09/24 04:43:00;;;;;;;4.22;3.92;;;;;;;;;;10322315;28;21942;-79
2023/09/24 04:48:01;;;;;;;7.15;3.40;;;;;;;;;;10310788;28;20248;-79
2023/09/24 04:53:05;;;;;;;5.22;3.30;;;;;;;;;;10311544;28;20582;-80
2023/09/24 04:58:06;;;;;;;4.45;4.15;;;;;;;;;;10334337;28;20204;-80
2023/09/24 05:03:08;;;;;;;3.90;3.58;;;;;;;;;;10320472;28;20223;-80
2023/09/24 05:08:09;;;;;;;4.43;3.83;;;;;;;;;;10313530;28;21096;-80
2023/09/24 05:13:11;;;;;;;4.30;3.95;;;;;;;;;;10306503;28;20707;-79
2023/09/24 05:18:12;;;;;;;4.18;3.95;;;;;;;;;;10309594;28;20326;-81
2023/09/24 05:23:13;;;;;;;5.70;4.68;;;;;;;;;;10308404;28;20289;-80
2023/09/24 05:28:14;;;;;;;5.43;4.93;;;;;;;;;;10315051;28;20212;-80
2023/09/24 05:33:15;;;;;;;7.75;5.10;;;;;;;;;;10309468;28;20573;-80
2023/09/24 05:38:16;;;;;;;5.35;4.85;;;;;;;;;;10299677;28;20204;-80
2023/09/24 05:43:17;;;;;;;7.15;5.32;;;;;;;;;;10285223;28;20217;-79
2023/09/24 05:48:19;;;;;;;4.75;4.32;;;;;;;;;;10304932;28;20212;-79
2023/09/24 05:53:20;;;;;;;5.93;5.32;;;;;;;;;;10307834;28;20223;-80
2023/09/24 05:58:21;;;;;;;5.50;5.00;;;;;;;;;;10309971;28;20211;-80
2023/09/24 06:03:22;;;;;;;5.20;4.70;;;;;;;;;;10306665;28;20211;-80
2023/09/24 06:08:23;;;;;;;5.07;4.63;;;;;;;;;;10312595;28;20254;-79
2023/09/24 06:13:24;;;;;;;5.10;4.65;;;;;;;;;;10337524;28;20222;-79
2023/09/24 06:18:25;;;;;;;9.13;5.38;;;;;;;;;;10304317;28;20272;-80
2023/09/24 06:23:26;;;;;;;5.35;4.85;;;;;;;;;;10320718;28;20217;-80
2023/09/24 06:28:41;;;;;;;4.88;4.45;;;;;;;;;;10414350;28;20577;-79
2023/09/24 06:33:42;;;;;;;4.97;4.50;;;;;;;;;;10378561;28;20222;-78
2023/09/24 06:38:44;;;;;;;3.83;3.72;;;;;;;;;;10373938;28;20214;-81
2023/09/24 06:43:45;;;;;;;4.40;4.07;;;;;;;;;;10379244;28;20211;-79
2023/09/24 06:48:46;;;;;;;5.35;4.43;;;;;;;;;;10380672;28;20195;-80
2023/09/24 06:53:50;;;;;;;6.70;4.00;;;;;;;;;;10370181;28;20358;-79
2023/09/24 06:58:51;;;;;;;5.32;4.60;;;;;;;;;;10373212;28;20227;-80
2023/09/24 07:03:53;;;;;;;5.00;4.45;;;;;;;;;;10369533;28;20216;-79
2023/09/24 07:08:54;;;;;;;4.30;3.95;;;;;;;;;;10369537;28;20204;-80
2023/09/24 07:13:55;;;;;;;4.63;4.32;;;;;;;;;;10371470;28;20318;-78
2023/09/24 07:18:57;;;;;;;4.68;4.38;;;;;;;;;;10373576;28;20306;-79
2023/09/24 07:23:58;;;;;;;3.97;3.78;;;;;;;;;;10352419;28;20247;-79
2023/09/24 07:29:02;;;;;;;3.75;3.58;;;;;;;;;;10366800;28;20207;-79
2023/09/24 07:34:05;;;;;;;4.35;4.05;;;;;;;;;;10370666;28;20219;-78
2023/09/24 07:39:06;;;;;;;4.43;4.18;;;;;;;;;;10343457;28;20216;-79
2023/09/24 07:44:07;;;;;;;4.85;4.45;;;;;;;;;;10341251;28;20227;-79
2023/09/24 07:49:09;;;;;;;4.13;3.90;;;;;;;;;;10331420;28;20212;-81
2023/09/24 07:54:10;;;;;;;4.25;3.97;;;;;;;;;;10333536;28;20227;-79
2023/09/24 07:59:11;;;;;;;4.47;4.18;;;;;;;;;;10326513;28;21271;-79
2023/09/24 08:04:12;;;;;;;4.20;3.90;;;;;;;;;;10345486;28;20212;-79
2023/09/24 08:09:14;;;;;;;4.05;3.88;;;;;;;;;;10334684;28;20216;-78
2023/09/24 08:14:15;;;;;;;4.65;4.20;;;;;;;;;;10350156;28;20303;-80
2023/09/24 08:19:16;;;;;;;4.43;4.13;;;;;;;;;;10335236;28;20741;-79
2023/09/24 08:24:17;;;;;;;4.10;3.80;;;;;;;;;;10348057;28;20331;-79
2023/09/24 08:29:18;;;;;;;4.47;4.13;;;;;;;;;;10341311;28;20204;-80
2023/09/24 08:34:19;;;;;;;6.13;3.85;;;;;;;;;;10347181;28;20219;-80
2023/09/24 08:39:20;;;;;;;3.35;3.15;;;;;;;;;;10353623;28;20222;-80
2023/09/24 08:44:24;;;;;;;3.17;3.08;;;;;;;;;;10335285;28;20263;-81
2023/09/24 08:49:26;;;;;;;2.67;1.98;;;;;;;;;;10356514;28;20751;-80
2023/09/24 08:54:30;;;;;;;2.92;1.83;;;;;;;;;;10352193;28;20827;-79
2023/09/24 08:59:31;;;;;;;2.38;2.28;;;;;;;;;;10351349;28;20236;-80
2023/09/24 09:04:33;;;;;;;1.70;1.60;;;;;;;;;;10348907;28;20219;-80
2023/09/24 09:09:34;;;;;;;0.80;0.80;;;;;;;;;;10353798;28;20218;-80
2023/09/24 09:14:37;;;;;;;0.98;0.98;;;;;;;;;;10354771;28;20995;-79
2023/09/24 09:19:48;;;;;;;2.15;1.10;;;;;;;;;;10351792;28;20761;-80
2023/09/24 09:25:09;;;;;;;0.95;0.95;;;;;;;;;;10343774;28;20235;-80
2023/09/24 09:30:15;;;;;;;3.70;1.05;;;;;;;;;;10357262;28;20617;-79
2023/09/24 09:35:16;;;;;;;1.42;1.33;;;;;;;;;;10351947;28;20211;-79
2023/09/24 09:40:18;;;;;;;0.70;0.70;;;;;;;;;;10353417;28;20216;-80
2023/09/24 09:45:19;;;;;;;0.40;0.40;;;;;;;;;;10368372;28;20303;-81
2023/09/24 09:50:22;;;;;;;0.55;0.45;;;;;;;;;;10332513;28;20188;-80
2023/09/24 09:55:24;;;;;;;0.20;0.20;;;;;;;;;;10352918;28;20200;-81
2023/09/24 10:00:26;;;;;;;0.30;0.30;;;;;;;;;;10350523;28;20290;-80
2023/09/24 10:05:28;;;;;;;0.80;0.20;;;;;;;;;;10353782;28;20714;-80
2023/09/24 10:10:32;;;;;;;0.73;0.40;;;;;;;;;;10356538;28;20689;-80
2023/09/24 10:15:33;;;;;;;1.35;0.70;;;;;;;;;;10352854;28;20251;-80
2023/09/24 10:20:50;;;;;;;1.52;0.30;;;;;;;;;;10355453;28;20219;-80
2023/09/24 10:25:51;;;;;;;0.40;0.40;;;;;;;;;;10348946;28;20270;-80
2023/09/24 10:31:09;;;;;;;0.25;0.25;;;;;;;;;;10336964;28;20216;-78
2023/09/24 10:36:22;;;;;;;0.20;0.20;;;;;;;;;;10365617;28;20267;-79
2023/09/24 10:41:23;;;;;;;1.00;0.20;;;;;;;;;;10349781;28;20236;-80
2023/09/24 10:46:27;;;;;;;0.30;0.30;;;;;;;;;;10341044;28;20232;-78
2023/09/24 10:51:29;;;;;;;0.25;0.20;;;;;;;;;;10333591;28;20220;-79
2023/09/24 10:56:30;;;;;;;0.30;0.30;;;;;;;;;;10347180;28;20250;-79
2023/09/24 11:01:31;;;;;;;0.30;0.30;;;;;;;;;;10342850;28;20243;-78
2023/09/24 11:06:32;;;;;;;0.30;0.30;;;;;;;;;;10350606;28;20247;-79
2023/09/24 11:11:33;;;;;;;0.40;0.40;;;;;;;;;;10337554;28;20219;-79
2023/09/24 11:16:34;;;;;;;0.10;0.10;;;;;;;;;;10360928;28;20855;-80
2023/09/24 11:21:35;;;;;;;0.32;0.30;;;;;;;;;;10365656;28;20220;-80
2023/09/24 11:26:37;;;;;;;0.90;0.20;;;;;;;;;;10360307;28;20728;-79
2023/09/24 11:31:43;;;;;;;0.40;0.17;;;;;;;;;;10355297;28;20282;-79
2023/09/24 11:36:52;;;;;;;0.50;0.20;;;;;;;;;;10357242;28;20694;-79
2023/09/24 11:41:53;;;;;;;0.20;0.20;;;;;;;;;;10362660;28;20239;-79
2023/09/24 11:46:54;;;;;;;0.65;0.20;;;;;;;;;;10344212;28;20717;-80
2023/09/24 11:51:55;;;;;;;0.20;0.20;;;;;;;;;;10363521;28;20270;-81
2023/09/24 11:56:56;;;;;;;0.15;0.15;;;;;;;;;;10358923;28;20216;-81
2023/09/24 12:01:57;;;;;;;0.20;0.20;;;;;;;;;;10348297;28;20288;-81
2023/09/24 12:06:58;;;;;;;0.10;0.10;;;;;;;;;;10344200;28;20703;-80
2023/09/24 12:11:59;;;;;;;0.55;0.20;;;;;;;;;;10362667;28;20220;-81
2023/09/24 12:17:00;;;;;;;2.00;0.30;;;;;;;;;;10365722;28;20219;-80
2023/09/24 12:22:02;;;;;;;0.90;0.20;;;;;;;;;;10368234;28;20228;-81
2023/09/24 12:27:03;;;;;;;0.10;0.10;;;;;;;;;;10362343;28;20387;-79
2023/09/24 12:32:04;;;;;;;0.90;0.28;;;;;;;;;;10356599;28;20586;-80
2023/09/24 12:37:05;;;;;;;0.20;0.20;;;;;;;;;;10334549;28;20224;-81
2023/09/24 12:42:06;;;;;;;0.40;0.20;;;;;;;;;;10357155;28;20665;-80
2023/09/24 12:47:07;;;;;;;0.20;0.20;;;;;;;;;;10345767;28;20239;-81
2023/09/24 12:52:09;;;;;;;0.20;0.20;;;;;;;;;;10350992;28;20219;-81
2023/09/24 12:57:10;;;;;;;0.30;0.30;;;;;;;;;;10339677;28;20220;-81
2023/09/24 13:02:11;;;;;;;2.15;0.20;;;;;;;;;;10353656;28;20600;-80
2023/09/24 13:07:12;;;;;;;0.20;0.20;;;;;;;;;;10370554;28;20212;-80
2023/09/24 13:12:15;;;;;;;0.20;0.20;;;;;;;;;;10341873;28;20213;-81
2023/09/24 13:17:16;;;;;;;0.20;0.20;;;;;;;;;;10338030;28;20225;-81
2023/09/24 13:22:17;;;;;;;0.52;0.20;;;;;;;;;;10354464;28;20277;-80
2023/09/24 13:27:18;;;;;;;0.20;0.20;;;;;;;;;;10355708;28;20228;-79
2023/09/24 13:32:20;;;;;;;0.20;0.20;;;;;;;;;;10357554;28;20682;-79
2023/09/24 13:37:22;;;;;;;0.25;0.25;;;;;;;;;;10348376;28;20224;-78
2023/09/24 13:42:23;;;;;;;0.20;0.20;;;;;;;;;;10359477;28;20207;-78
2023/09/24 13:47:24;;;;;;;0.20;0.20;;;;;;;;;;10356147;28;20803;-80
2023/09/24 13:52:26;;;;;;;1.27;0.30;;;;;;;;;;10338726;28;20273;-81
2023/09/24 13:57:27;;;;;;;0.30;0.30;;;;;;;;;;10356638;28;21305;-77
2023/09/24 14:02:28;;;;;;;0.47;0.38;;;;;;;;;;10350956;28;20259;-76
2023/09/24 14:07:29;;;;;;;0.28;0.28;;;;;;;;;;10345138;28;20862;-76
2023/09/24 14:12:30;;;;;;;0.20;0.20;;;;;;;;;;10336498;28;20273;-77
2023/09/24 14:17:32;;;;;;;0.20;0.20;;;;;;;;;;10341575;28;20697;-74
2023/09/24 14:22:33;;;;;;;0.70;0.20;;;;;;;;;;10349167;28;20384;-77
2023/09/24 14:27:34;;;;;;;0.20;0.20;;;;;;;;;;10351412;28;20231;-76
2023/09/24 14:32:35;;;;;;;0.75;0.25;;;;;;;;;;10347095;28;20231;-76
2023/09/24 14:37:36;;;;;;;0.35;0.30;;;;;;;;;;10346970;28;20215;-75
2023/09/24 14:42:37;;;;;;;0.30;0.30;;;;;;;;;;10333060;28;20220;-76
2023/09/24 14:47:41;;;;;;;0.20;0.20;;;;;;;;;;10345757;28;20690;-76
2023/09/24 14:52:42;;;;;;;0.75;0.20;;;;;;;;;;10363359;28;20678;-76
2023/09/24 14:57:43;;;;;;;0.20;0.20;;;;;;;;;;10360407;28;20223;-76
2023/09/24 15:02:44;;;;;;;2.00;0.30;;;;;;;;;;10342153;28;20231;-77
2023/09/24 15:07:45;;;;;;;0.20;0.20;;;;;;;;;;10332886;28;20227;-75
2023/09/24 15:12:46;;;;;;;0.35;0.35;;;;;;;;;;10354483;28;20265;-77
2023/09/24 15:17:47;;;;;;;0.20;0.20;;;;;;;;;;10357150;28;20239;-81
2023/09/24 15:22:49;;;;;;;0.20;0.20;;;;;;;;;;10368093;28;20682;-80
2023/09/24 15:27:50;;;;;;;0.20;0.20;;;;;;;;;;10358110;28;20231;-79
2023/09/24 15:32:51;;;;;;;0.20;0.20;;;;;;;;;;10350383;28;20220;-81
2023/09/24 15:37:53;;;;;;;0.17;0.17;;;;;;;;;;10355746;28;20243;-79
2023/09/24 15:42:54;;;;;;;0.20;0.20;;;;;;;;;;10355000;28;20334;-80
2023/09/24 15:47:55;;;;;;;0.30;0.30;;;;;;;;;;10352385;28;20236;-81
2023/09/24 15:52:56;;;;;;;0.20;0.20;;;;;;;;;;10334768;28;20848;-81
2023/09/24 15:57:57;;;;;;;0.52;0.52;;;;;;;;;;10358987;28;20212;-80
2023/09/24 16:02:58;;;;;;;0.68;0.32;;;;;;;;;;10359430;28;20702;-80
2023/09/24 16:07:59;;;;;;;0.68;0.25;;;;;;;;;;10358665;28;20227;-80
2023/09/24 16:13:01;;;;;;;0.30;0.30;;;;;;;;;;10359075;28;20227;-80
2023/09/24 16:18:02;;;;;;;0.40;0.32;;;;;;;;;;10363858;28;20241;-80
2023/09/24 16:23:03;;;;;;;0.32;0.30;;;;;;;;;;10356991;28;20338;-79
2023/09/24 16:28:04;;;;;;;1.30;0.50;;;;;;;;;;10343353;28;20291;-78
2023/09/24 16:33:05;;;;;;;0.95;0.80;;;;;;;;;;10360676;28;20247;-80
2023/09/24 16:38:06;;;;;;;2.58;0.70;;;;;;;;;;10360795;28;20660;-79
2023/09/24 16:43:07;;;;;;;0.40;0.40;;;;;;;;;;10363261;28;20224;-79
2023/09/24 16:48:08;;;;;;;0.50;0.50;;;;;;;;;;10360603;28;20732;-79
2023/09/24 16:53:13;;;;;;;0.50;0.50;;;;;;;;;;10343046;28;20929;-78
2023/09/24 16:58:14;;;;;;;0.30;0.30;;;;;;;;;;10375584;28;20725;-79
2023/09/24 17:03:15;;;;;;;0.30;0.30;;;;;;;;;;10345073;28;20220;-78
2023/09/24 17:08:16;;;;;;;0.30;0.30;;;;;;;;;;10353253;28;20242;-78
2023/09/24 17:13:17;;;;;;;0.60;0.60;;;;;;;;;;10351901;28;20208;-78
2023/09/24 17:18:18;;;;;;;1.30;0.68;;;;;;;;;;10351615;28;20305;-78
2023/09/24 17:23:20;;;;;;;0.50;0.50;;;;;;;;;;10353147;28;20613;-78
2023/09/24 17:28:21;;;;;;;1.38;0.70;;;;;;;;;;10335336;28;20227;-79
2023/09/24 17:33:22;;;;;;;0.50;0.50;;;;;;;;;;10330480;28;20254;-79
2023/09/24 17:38:23;;;;;;;0.63;0.60;;;;;;;;;;10312277;28;20238;-78
2023/09/24 17:43:24;;;;;;;0.95;0.95;;;;;;;;;;10326922;28;20227;-79
2023/09/24 17:48:26;;;;;;;1.00;1.00;;;;;;;;;;10305614;28;20223;-79
2023/09/24 17:53:27;;;;;;;1.35;1.25;;;;;;;;;;10317749;28;20219;-79
2023/09/24 17:58:29;;;;;;;1.48;1.00;;;;;;;;;;10337466;28;20694;-79
2023/09/24 18:03:30;;;;;;;0.82;0.80;;;;;;;;;;10313053;28;20581;-77
2023/09/24 18:08:32;;;;;;;1.00;1.00;;;;;;;;;;10322644;28;20223;-81
2023/09/24 18:13:33;;;;;;;3.17;1.00;;;;;;;;;;10348112;28;20224;-77
2023/09/24 18:18:36;;;;;;;1.10;1.10;;;;;;;;;;10341132;28;20216;-76
2023/09/24 18:23:37;;;;;;;0.95;0.95;;;;;;;;;;10330025;28;20411;-78
2023/09/24 18:28:37;;;;;;;2.45;1.13;;;;;;;;;;10353517;28;20231;-79
2023/09/24 18:33:39;;;;;;;1.55;1.45;;;;;;;;;;10347012;28;20242;-80
2023/09/24 18:38:40;;;;;;;1.85;1.75;;;;;;;;;;10338164;28;20410;-79
2023/09/24 18:43:41;;;;;;;1.65;1.55;;;;;;;;;;10337925;28;20340;-80
2023/09/24 18:48:42;;;;;;;2.70;2.45;;;;;;;;;;10340893;28;20224;-80
2023/09/24 18:53:43;;;;;;;8.13;4.57;;;;;;;;;;10343805;28;20219;-80
2023/09/24 18:58:44;;;;;;;2.65;2.53;;;;;;;;;;10353479;28;20205;-79
2023/09/24 19:03:45;;;;;;;2.72;2.53;;;;;;;;;;10336636;28;20589;-78
2023/09/24 19:08:46;;;;;;;2.25;2.00;;;;;;;;;;10330195;28;20226;-80
2023/09/24 19:13:47;;;;;;;2.38;2.28;;;;;;;;;;10328937;28;20643;-79
2023/09/24 19:18:48;;;;;;;2.35;2.25;;;;;;;;;;10303940;28;20204;-77
2023/09/24 19:23:49;;;;;;;2.05;1.95;;;;;;;;;;10318321;28;21052;-79
2023/09/24 19:28:50;;;;;;;2.53;2.33;;;;;;;;;;10319270;28;20838;-79
2023/09/24 19:33:51;;;;;;;2.55;2.45;;;;;;;;;;10318441;28;20220;-79
2023/09/24 19:38:52;;;;;;;3.05;2.85;;;;;;;;;;10331606;28;20273;-78
2023/09/24 19:43:54;;;;;;;4.68;3.38;;;;;;;;;;10341272;28;20219;-78
2023/09/24 19:48:55;;;;;;;3.95;3.67;;;;;;;;;;10337701;28;20307;-78
2023/09/24 19:53:56;;;;;;;4.15;3.88;;;;;;;;;;10334481;28;21412;-78
2023/09/24 19:58:57;;;;;;;3.95;3.55;;;;;;;;;;10330534;28;20231;-79
2023/09/24 20:03:58;;;;;;;4.05;3.65;;;;;;;;;;10336110;28;20222;-78
2023/09/24 20:09:04;;;;;;;4.20;3.90;;;;;;;;;;10344204;28;20249;-79
2023/09/24 20:14:05;;;;;;;6.22;4.40;;;;;;;;;;10334562;28;20303;-80
2023/09/24 20:19:07;;;;;;;5.22;4.78;;;;;;;;;;10325191;28;20239;-79
2023/09/24 20:24:10;;;;;;;4.22;3.90;;;;;;;;;;10346530;28;20663;-80
2023/09/24 20:29:11;;;;;;;4.13;3.90;;;;;;;;;;10350252;28;20224;-80
2023/09/24 20:34:13;;;;;;;4.28;3.97;;;;;;;;;;10361805;28;20220;-78
2023/09/24 20:39:14;;;;;;;3.65;3.45;;;;;;;;;;10354662;28;20215;-79
2023/09/24 20:44:15;;;;;;;4.45;4.05;;;;;;;;;;10342479;28;20231;-79
2023/09/24 20:49:16;;;;;;;3.55;3.25;;;;;;;;;;10324282;28;20219;-79
2023/09/24 20:54:17;;;;;;;3.65;3.45;;;;;;;;;;10360727;28;20267;-80
2023/09/24 20:59:23;;;;;;;4.28;3.45;;;;;;;;;;10359300;28;20990;-79
2023/09/24 21:04:24;;;;;;;3.97;3.67;;;;;;;;;;10361176;28;20212;-79
2023/09/24 21:09:25;;;;;;;3.90;3.70;;;;;;;;;;10338270;28;20206;-79
2023/09/24 21:14:26;;;;;;;3.47;3.28;;;;;;;;;;10354598;28;20227;-79
2023/09/24 21:19:27;;;;;;;4.40;4.00;;;;;;;;;;10352597;28;20214;-79
2023/09/24 21:24:28;;;;;;;3.95;3.65;;;;;;;;;;10356029;28;20574;-79
2023/09/24 21:29:29;;;;;;;4.80;3.50;;;;;;;;;;10356298;28;20702;-79
2023/09/24 21:34:30;;;;;;;3.83;3.53;;;;;;;;;;10373330;28;20236;-79
2023/09/24 21:39:31;;;;;;;3.28;3.08;;;;;;;;;;10357261;28;20350;-78
2023/09/24 21:44:33;;;;;;;3.22;2.80;;;;;;;;;;10354352;28;20219;-79
2023/09/24 21:49:34;;;;;;;3.20;3.00;;;;;;;;;;10354063;28;20262;-79
2023/09/24 21:54:35;;;;;;;3.42;3.17;;;;;;;;;;10337712;28;20219;-80
2023/09/24 21:59:36;;;;;;;3.17;2.47;;;;;;;;;;10353067;28;22187;-80
2023/09/24 22:04:37;;;;;;;3.42;2.55;;;;;;;;;;10352215;28;20223;-80
2023/09/24 22:09:38;;;;;;;2.47;2.22;;;;;;;;;;10338080;28;20216;-78
2023/09/24 22:14:39;;;;;;;2.67;2.58;;;;;;;;;;10353083;28;20864;-78
2023/09/24 22:19:41;;;;;;;1.85;1.85;;;;;;;;;;10358504;28;20212;-78
2023/09/24 22:24:42;;;;;;;2.05;1.95;;;;;;;;;;10352691;28;20228;-79
2023/09/24 22:29:43;;;;;;;1.88;1.88;;;;;;;;;;10353909;28;20216;-79
2023/09/24 22:34:44;;;;;;;1.90;1.80;;;;;;;;;;10350099;28;20262;-78
2023/09/24 22:39:45;;;;;;;2.22;2.22;;;;;;;;;;10355365;28;20235;-79
2023/09/24 22:44:46;;;;;;;2.75;1.85;;;;;;;;;;10351772;28;20694;-79
2023/09/24 22:49:47;;;;;;;1.70;1.60;;;;;;;;;;10353083;28;20748;-80
2023/09/24 22:54:48;;;;;;;1.90;1.80;;;;;;;;;;10352691;28;20219;-79
2023/09/24 22:59:49;;;;;;;4.20;1.65;;;;;;;;;;10332918;28;20734;-80
2023/09/24 23:04:50;;;;;;;1.70;1.60;;;;;;;;;;10355490;28;20251;-79
2023/09/24 23:09:51;;;;;;;1.88;1.33;;;;;;;;;;10359566;28;20590;-78
2023/09/24 23:14:52;;;;;;;1.85;1.75;;;;;;;;;;10359190;28;20224;-79
2023/09/24 23:19:53;;;;;;;1.67;1.67;;;;;;;;;;10380302;28;20233;-79
2023/09/24 23:24:55;;;;;;;1.88;1.88;;;;;;;;;;10360955;28;20228;-79
2023/09/24 23:29:56;;;;;;;2.03;1.92;;;;;;;;;;10365560;28;20239;-79
2023/09/24 23:34:58;;;;;;;2.63;2.45;;;;;;;;;;10361226;28;20714;-79
2023/09/24 23:39:59;;;;;;;2.00;1.90;;;;;;;;;;10362388;28;20224;-80
2023/09/24 23:45:00;;;;;;;1.85;1.75;;;;;;;;;;10363902;28;20228;-78
2023/09/24 23:50:01;;;;;;;2.22;2.13;;;;;;;;;;10362357;28;20212;-79
2023/09/24 23:55:04;;;;;;;3.15;1.63;;;;;;;;;;10340574;28;20669;-81
